Time;durP1;ratioP1;P1;durP2;ratioP2;P2;SDS_P1;SDS_P2;PMS_P1;PMS_P2;Temp;Humidity;BMP_temperature;BMP_pressure;BME280_temperature;BME280_humidity;BME280_pressure;Samples;Min_cycle;Max_cycle;Signal;HPM_P1;HPM_P2
2023/05/31 00:00:17;;;;;;;11.60;4.38;;;11.30;99.90;;;;;;5039936;28;20053;-66
2023/05/31 00:02:43;;;;;;;11.73;4.93;;;11.20;99.90;;;;;;5033667;28;20804;-66
2023/05/31 00:05:09;;;;;;;14.48;5.90;;;11.20;99.90;;;;;;5028566;28;20701;-66
2023/05/31 00:07:35;;;;;;;16.02;7.28;;;11.20;99.90;;;;;;5027886;28;20096;-66
2023/05/31 00:10:01;;;;;;;14.88;6.70;;;11.10;99.90;;;;;;4996367;28;20042;-66
2023/05/31 00:12:26;;;;;;;13.32;6.57;;;11.10;99.90;;;;;;5028357;28;20041;-66
2023/05/31 00:14:52;;;;;;;14.05;7.13;;;11.10;99.90;;;;;;5027752;28;20046;-66
2023/05/31 00:17:18;;;;;;;12.43;6.40;;;11.00;99.90;;;;;;5011239;28;20141;-66
2023/05/31 00:19:43;;;;;;;18.25;6.80;;;11.00;99.90;;;;;;5003012;28;20128;-66
2023/05/31 00:22:10;;;;;;;13.32;6.45;;;10.90;99.90;;;;;;5027354;28;20519;-66
2023/05/31 00:24:36;;;;;;;14.55;6.10;;;10.90;99.90;;;;;;5010898;28;20042;-66
2023/05/31 00:27:02;;;;;;;17.38;6.22;;;10.90;99.90;;;;;;5028825;28;20731;-66
2023/05/31 00:29:28;;;;;;;13.85;5.28;;;10.90;99.90;;;;;;4995043;28;20086;-66
2023/05/31 00:31:54;;;;;;;13.60;5.60;;;10.80;99.90;;;;;;4996677;28;20080;-66
2023/05/31 00:34:20;;;;;;;13.60;5.13;;;10.80;99.90;;;;;;4994277;28;20157;-66
2023/05/31 00:36:45;;;;;;;16.33;6.10;;;10.70;99.90;;;;;;5010599;28;20279;-65
2023/05/31 00:39:11;;;;;;;14.27;6.18;;;10.80;99.90;;;;;;5029280;28;20046;-66
2023/05/31 00:41:36;;;;;;;18.42;7.03;;;10.80;99.90;;;;;;5029288;28;20110;-66
2023/05/31 00:44:02;;;;;;;16.98;6.78;;;10.80;99.90;;;;;;5046346;28;20049;-66
2023/05/31 00:46:31;;;;;;;17.50;7.18;;;10.70;99.90;;;;;;5011737;28;20088;-66
2023/05/31 00:48:58;;;;;;;17.58;7.00;;;10.70;99.90;;;;;;4994049;28;20034;-66
2023/05/31 00:51:25;;;;;;;18.60;7.30;;;10.70;99.90;;;;;;5027931;28;20100;-66
2023/05/31 00:53:51;;;;;;;16.98;7.38;;;10.60;99.90;;;;;;4999589;28;20377;-66
2023/05/31 00:56:18;;;;;;;17.63;7.60;;;10.60;99.90;;;;;;4993762;28;20088;-66
2023/05/31 00:58:45;;;;;;;20.15;8.27;;;10.60;99.90;;;;;;5026408;28;20136;-66
2023/05/31 01:01:13;;;;;;;18.65;8.50;;;10.60;99.90;;;;;;4994120;28;20089;-66
2023/05/31 01:03:39;;;;;;;23.48;8.65;;;10.60;1.00;;;;;;5027005;28;20482;-66
2023/05/31 01:06:05;;;;;;;19.27;8.32;;;10.60;1.00;;;;;;5027800;28;20053;-65
2023/05/31 01:08:31;;;;;;;20.08;8.75;;;10.60;1.00;;;;;;4993608;28;20313;-66
2023/05/31 01:11:05;;;;;;;21.92;8.60;;;10.60;1.00;;;;;;4995955;28;20038;-66
2023/05/31 01:13:49;;;;;;;19.27;9.50;;;10.50;1.00;;;;;;5043917;28;20127;-65
2023/05/31 01:16:35;;;;;;;25.02;9.20;;;10.50;1.00;;;;;;5037830;28;20054;-65
2023/05/31 01:19:07;;;;;;;22.08;8.68;;;10.50;1.00;;;;;;4996070;28;20081;-66
2023/05/31 01:21:57;;;;;;;22.65;9.32;;;10.50;1.00;;;;;;4993311;28;20054;-65
2023/05/31 01:24:39;;;;;;;25.20;10.07;;;10.40;1.00;;;;;;5036323;28;20136;-66
2023/05/31 01:27:06;;;;;;;22.35;9.40;;;10.50;2.40;;;;;;5027289;28;20125;-65
2023/05/31 01:29:35;;;;;;;23.40;8.93;;;10.40;1.00;;;;;;5027060;28;20120;-65
2023/05/31 01:32:02;;;;;;;24.25;9.57;;;10.50;1.00;;;;;;4995277;28;20702;-65
2023/05/31 01:34:28;;;;;;;24.83;9.07;;;10.40;1.00;;;;;;4993467;28;20041;-65
2023/05/31 01:36:54;;;;;;;25.02;9.48;;;10.40;1.00;;;;;;5010650;28;20491;-66
2023/05/31 01:39:20;;;;;;;23.35;10.15;;;10.40;1.00;;;;;;5026635;28;20042;-65
2023/05/31 01:41:48;;;;;;;27.67;10.48;;;10.40;1.00;;;;;;4992979;28;20046;-65
2023/05/31 01:44:16;;;;;;;23.63;11.88;;;10.40;1.00;;;;;;4994401;28;20132;-65
2023/05/31 01:46:43;;;;;;;29.95;12.05;;;10.30;1.00;;;;;;5026974;28;20357;-65
2023/05/31 01:49:10;;;;;;;37.88;11.75;;;10.40;1.00;;;;;;4994162;28;20049;-66
2023/05/31 01:51:37;;;;;;;31.45;12.65;;;10.40;3.40;;;;;;4993284;28;20623;-66
2023/05/31 01:54:04;;;;;;;31.30;13.85;;;10.40;2.60;;;;;;4994068;28;20057;-65
2023/05/31 01:56:31;;;;;;;31.20;13.60;;;10.40;1.60;;;;;;4993688;28;20041;-66
2023/05/31 01:58:59;;;;;;;26.30;11.30;;;10.40;68.50;;;;;;4992713;28;20348;-66
2023/05/31 02:01:25;;;;;;;25.60;11.10;;;10.40;78.50;;;;;;5009295;28;20098;-65
2023/05/31 02:03:51;;;;;;;27.77;11.40;;;10.30;94.60;;;;;;5001683;28;20554;-66
2023/05/31 02:06:17;;;;;;;29.63;11.90;;;10.30;96.10;;;;;;4994618;28;20046;-66
2023/05/31 02:08:42;;;;;;;28.05;10.65;;;10.30;94.80;;;;;;4993238;28;20095;-66
2023/05/31 02:11:08;;;;;;;31.20;11.07;;;10.30;99.90;;;;;;5010463;28;20566;-66
2023/05/31 02:13:35;;;;;;;26.85;11.07;;;10.40;99.90;;;;;;4993813;28;20041;-66
2023/05/31 02:16:00;;;;;;;26.73;11.77;;;10.30;99.90;;;;;;4992970;28;20073;-66
2023/05/31 02:18:27;;;;;;;30.52;11.73;;;10.40;99.90;;;;;;4995826;28;20803;-66
2023/05/31 02:20:53;;;;;;;33.00;11.80;;;10.30;99.90;;;;;;4993108;28;20078;-66
2023/05/31 02:23:19;;;;;;;24.98;11.35;;;10.30;99.90;;;;;;5009143;28;20821;-66
2023/05/31 02:25:46;;;;;;;31.15;10.75;;;10.30;99.90;;;;;;4992546;28;20562;-66
2023/05/31 02:28:12;;;;;;;28.67;11.07;;;10.30;99.90;;;;;;4992459;28;20646;-65
2023/05/31 02:30:38;;;;;;;29.25;10.23;;;10.40;99.90;;;;;;5026345;28;20207;-66
2023/05/31 02:33:04;;;;;;;27.80;10.18;;;10.40;99.90;;;;;;5010344;28;20102;-66
2023/05/31 02:35:30;;;;;;;25.33;9.63;;;10.40;99.90;;;;;;4992253;28;20048;-66
2023/05/31 02:37:56;;;;;;;21.55;9.32;;;10.40;99.90;;;;;;5024488;28;20585;-66
2023/05/31 02:40:22;;;;;;;31.77;10.82;;;10.40;99.90;;;;;;5009091;28;20128;-66
2023/05/31 02:42:47;;;;;;;31.05;10.20;;;10.30;99.90;;;;;;5007997;28;20519;-66
2023/05/31 02:45:13;;;;;;;34.28;10.85;;;10.30;99.90;;;;;;4992960;28;20037;-66
2023/05/31 02:47:39;;;;;;;28.35;10.15;;;10.40;99.90;;;;;;5009699;28;20052;-66
2023/05/31 02:50:09;;;;;;;26.67;9.90;;;10.30;99.90;;;;;;4993353;28;20050;-66
2023/05/31 02:52:38;;;;;;;23.92;9.65;;;10.20;99.90;;;;;;4991207;28;20076;-65
2023/05/31 02:55:05;;;;;;;27.63;9.55;;;10.30;99.90;;;;;;5026732;28;20148;-66
2023/05/31 02:57:30;;;;;;;26.83;10.00;;;10.20;99.90;;;;;;5007827;28;20045;-65
2023/05/31 03:00:00;;;;;;;28.23;10.18;;;10.30;99.90;;;;;;5026695;28;20656;-66
2023/05/31 03:02:25;;;;;;;22.88;9.18;;;10.20;99.90;;;;;;4991599;28;20121;-66
2023/05/31 03:04:51;;;;;;;23.52;9.43;;;10.30;99.90;;;;;;5024461;28;20524;-65
2023/05/31 03:07:17;;;;;;;23.15;10.13;;;10.20;99.90;;;;;;5039689;28;20124;-65
2023/05/31 03:09:42;;;;;;;26.00;9.30;;;10.20;99.90;;;;;;5024227;28;20047;-66
2023/05/31 03:12:10;;;;;;;24.65;9.27;;;10.20;99.90;;;;;;5025430;28;20045;-66
2023/05/31 03:14:36;;;;;;;27.75;9.27;;;10.30;99.90;;;;;;4999594;28;20224;-66
2023/05/31 03:17:03;;;;;;;26.45;9.07;;;10.30;99.90;;;;;;5024545;28;20776;-66
2023/05/31 03:19:28;;;;;;;21.75;9.02;;;10.20;99.90;;;;;;4995455;28;20091;-66
2023/05/31 03:21:54;;;;;;;17.92;9.25;;;10.20;99.90;;;;;;5037122;28;20270;-66
2023/05/31 03:24:20;;;;;;;23.60;9.23;;;10.20;99.90;;;;;;5023262;28;20275;-66
2023/05/31 03:26:46;;;;;;;24.30;9.45;;;10.30;99.90;;;;;;5024430;28;20138;-66
2023/05/31 03:29:12;;;;;;;28.02;9.57;;;10.20;99.90;;;;;;4994217;28;20106;-66
2023/05/31 03:31:37;;;;;;;25.25;10.20;;;10.20;99.90;;;;;;5024270;28;20694;-66
2023/05/31 03:34:03;;;;;;;24.92;9.18;;;10.30;99.90;;;;;;5023953;28;20436;-65
2023/05/31 03:36:29;;;;;;;20.73;9.38;;;10.40;99.90;;;;;;5024718;28;20365;-66
2023/05/31 03:38:54;;;;;;;26.20;9.48;;;10.40;99.90;;;;;;5024218;28;20045;-66
2023/05/31 03:41:20;;;;;;;25.83;10.15;;;10.40;99.90;;;;;;5012415;28;20543;-66
2023/05/31 03:43:46;;;;;;;25.40;9.73;;;10.40;99.90;;;;;;5026561;28;20711;-66
2023/05/31 03:46:12;;;;;;;35.47;10.93;;;10.50;99.90;;;;;;5026270;28;20438;-65
2023/05/31 03:48:37;;;;;;;24.15;10.25;;;10.50;99.90;;;;;;5030614;28;20260;-65
2023/05/31 03:51:03;;;;;;;25.95;9.48;;;10.50;99.90;;;;;;4993475;28;20251;-65
2023/05/31 03:53:29;;;;;;;26.50;9.68;;;10.60;99.90;;;;;;5031808;28;20107;-65
2023/05/31 03:55:55;;;;;;;28.52;9.95;;;10.50;99.90;;;;;;5023535;28;20034;-66
2023/05/31 03:58:21;;;;;;;25.98;10.02;;;10.60;99.90;;;;;;5007754;28;20037;-65
2023/05/31 04:00:46;;;;;;;28.17;9.73;;;10.60;99.90;;;;;;4990605;28;20655;-65
2023/05/31 04:03:13;;;;;;;30.10;10.43;;;10.70;99.90;;;;;;5009107;28;20313;-65
2023/05/31 04:05:40;;;;;;;30.20;10.25;;;10.80;99.90;;;;;;5007304;28;20381;-65
2023/05/31 04:08:05;;;;;;;29.42;10.90;;;10.90;99.90;;;;;;5006917;28;20044;-66
2023/05/31 04:10:32;;;;;;;30.20;10.85;;;11.00;99.90;;;;;;4991466;28;20042;-65
2023/05/31 04:12:58;;;;;;;27.45;10.30;;;11.00;99.90;;;;;;5026143;28;20139;-66
2023/05/31 04:15:23;;;;;;;26.23;10.40;;;11.00;99.90;;;;;;5025630;28;20513;-65
2023/05/31 04:17:49;;;;;;;28.50;9.40;;;11.00;99.90;;;;;;5008560;28;20524;-66
2023/05/31 04:20:16;;;;;;;33.65;10.38;;;11.00;99.90;;;;;;5007161;28;20037;-65
2023/05/31 04:22:42;;;;;;;27.80;9.75;;;11.00;99.90;;;;;;4990926;28;20057;-66
2023/05/31 04:25:09;;;;;;;23.02;8.48;;;11.20;99.90;;;;;;4990362;28;20241;-65
2023/05/31 04:27:38;;;;;;;31.10;8.98;;;11.20;99.90;;;;;;4992901;28;20037;-66
2023/05/31 04:30:05;;;;;;;28.00;8.32;;;11.20;99.90;;;;;;5027750;28;20045;-66
2023/05/31 04:32:33;;;;;;;25.30;8.27;;;11.30;99.90;;;;;;4991447;28;20057;-65
2023/05/31 04:35:03;;;;;;;19.88;7.25;;;11.30;99.90;;;;;;5007067;28;20452;-65
2023/05/31 04:37:30;;;;;;;23.10;7.63;;;11.50;99.90;;;;;;5027714;28;20156;-65
2023/05/31 04:39:59;;;;;;;24.02;7.70;;;11.50;99.90;;;;;;5006085;28;20313;-65
2023/05/31 04:42:25;;;;;;;21.58;6.85;;;11.70;99.90;;;;;;4994486;28;20629;-64
2023/05/31 04:44:57;;;;;;;21.33;6.78;;;11.60;99.90;;;;;;4993928;28;20637;-65
2023/05/31 04:47:24;;;;;;;15.88;6.65;;;11.80;99.90;;;;;;4995951;28;20049;-65
2023/05/31 04:49:50;;;;;;;20.88;6.95;;;11.90;99.90;;;;;;4995902;28;20046;-65
2023/05/31 04:52:16;;;;;;;20.98;6.25;;;11.80;99.90;;;;;;5026679;28;20245;-65
2023/05/31 04:54:42;;;;;;;18.45;5.55;;;11.90;99.90;;;;;;5010485;28;20478;-65
2023/05/31 04:57:07;;;;;;;17.33;4.97;;;12.00;99.90;;;;;;5010838;28;20053;-65
2023/05/31 04:59:33;;;;;;;16.45;4.60;;;12.20;99.90;;;;;;4994121;28;20796;-65
2023/05/31 05:01:59;;;;;;;12.57;4.20;;;12.20;99.90;;;;;;5025888;28;20559;-66
2023/05/31 05:04:24;;;;;;;9.82;3.08;;;12.30;99.90;;;;;;5026391;28;20681;-66
2023/05/31 05:06:50;;;;;;;10.32;3.35;;;12.20;99.90;;;;;;5009870;28;20041;-67
2023/05/31 05:09:16;;;;;;;8.40;2.25;;;12.50;99.90;;;;;;5029185;28;20048;-66
2023/05/31 05:11:42;;;;;;;10.38;1.92;;;12.40;99.90;;;;;;5001257;28;20297;-66
2023/05/31 05:14:09;;;;;;;9.88;1.85;;;12.50;99.90;;;;;;4993775;28;20033;-66
2023/05/31 05:16:34;;;;;;;8.10;1.30;;;12.60;99.90;;;;;;5027071;28;20049;-66
2023/05/31 05:19:00;;;;;;;7.63;1.20;;;12.50;99.90;;;;;;5025664;28;20038;-65
2023/05/31 05:21:26;;;;;;;8.85;1.30;;;12.60;99.90;;;;;;5026790;28;20068;-66
2023/05/31 05:23:52;;;;;;;8.10;1.50;;;12.70;99.90;;;;;;5026194;28;20042;-67
2023/05/31 05:26:17;;;;;;;4.70;0.90;;;12.90;99.90;;;;;;4994650;28;20153;-67
2023/05/31 05:28:43;;;;;;;11.18;0.90;;;13.10;99.90;;;;;;5008799;28;20046;-67
2023/05/31 05:31:08;;;;;;;5.95;0.75;;;13.40;99.90;;;;;;5025533;28;20057;-67
2023/05/31 05:33:35;;;;;;;7.03;0.77;;;13.70;99.90;;;;;;5007435;28;20135;-67
2023/05/31 05:36:02;;;;;;;6.07;0.65;;;14.10;99.90;;;;;;5012150;28;20049;-66
2023/05/31 05:38:27;;;;;;;5.13;0.40;;;14.40;99.90;;;;;;4997380;28;20038;-66
2023/05/31 05:40:53;;;;;;;6.57;0.30;;;14.70;99.90;;;;;;5025351;28;20081;-67
2023/05/31 05:43:19;;;;;;;4.93;0.40;;;14.80;1.00;;;;;;5031335;28;20419;-66
2023/05/31 05:45:44;;;;;;;7.60;0.40;;;14.80;1.00;;;;;;4992733;28;20551;-66
2023/05/31 05:48:10;;;;;;;6.40;0.82;;;15.00;1.00;;;;;;4992014;28;20136;-66
2023/05/31 05:50:36;;;;;;;3.95;0.30;;;15.10;1.00;;;;;;5008755;28;20112;-67
2023/05/31 05:53:01;;;;;;;5.88;0.45;;;15.10;99.90;;;;;;5025646;28;20514;-67
2023/05/31 05:55:27;;;;;;;3.42;0.40;;;15.30;99.90;;;;;;5025023;28;20512;-66
2023/05/31 05:57:53;;;;;;;8.13;0.40;;;15.50;99.90;;;;;;4994166;28;20042;-66
2023/05/31 06:00:20;;;;;;;5.07;0.30;;;15.60;99.90;;;;;;5025325;28;20431;-66
2023/05/31 06:02:45;;;;;;;4.03;0.30;;;15.80;99.90;;;;;;5024931;28;20050;-66
2023/05/31 06:05:12;;;;;;;5.43;0.30;;;15.80;99.90;;;;;;4992591;28;20037;-67
2023/05/31 06:07:37;;;;;;;1.38;0.28;;;15.90;99.90;;;;;;5008109;28;20050;-67
2023/05/31 06:10:04;;;;;;;3.10;0.15;;;16.00;99.90;;;;;;4992786;28;20111;-67
2023/05/31 06:12:32;;;;;;;5.25;0.22;;;15.90;99.90;;;;;;4993907;28;20551;-67
2023/05/31 06:14:58;;;;;;;2.67;0.20;;;16.00;99.90;;;;;;5025244;28;20151;-67
2023/05/31 06:17:24;;;;;;;4.03;0.25;;;16.00;94.70;;;;;;5008764;28;20520;-66
2023/05/31 06:19:49;;;;;;;3.35;0.20;;;16.10;7.10;;;;;;5025731;28;20111;-67
2023/05/31 06:22:16;;;;;;;5.18;0.38;;;16.10;1.00;;;;;;5024711;28;20229;-67
2023/05/31 06:24:42;;;;;;;6.40;0.40;;;16.20;1.00;;;;;;5025173;28;20167;-67
2023/05/31 06:27:08;;;;;;;2.05;0.20;;;16.30;99.90;;;;;;5024949;28;20410;-67
2023/05/31 06:29:34;;;;;;;1.15;0.15;;;16.30;1.00;;;;;;5027160;28;20045;-66
2023/05/31 06:31:59;;;;;;;3.75;0.30;;;16.30;1.00;;;;;;5027267;28;20288;-66
2023/05/31 06:34:25;;;;;;;2.03;0.20;;;16.50;1.00;;;;;;5002021;28;20076;-67
2023/05/31 06:36:51;;;;;;;4.55;0.40;;;16.60;99.90;;;;;;5025432;28;20049;-67
2023/05/31 06:39:16;;;;;;;3.03;0.45;;;16.60;99.90;;;;;;5024994;28;20516;-67
2023/05/31 06:41:42;;;;;;;2.80;0.20;;;16.60;99.90;;;;;;5011910;28;20462;-67
2023/05/31 06:44:08;;;;;;;3.90;0.30;;;16.80;99.90;;;;;;4993905;28;20053;-67
2023/05/31 06:46:33;;;;;;;2.28;0.20;;;16.90;99.90;;;;;;5009655;28;20132;-67
2023/05/31 06:48:59;;;;;;;4.05;0.22;;;16.90;99.90;;;;;;5009950;28;20389;-65
2023/05/31 06:51:25;;;;;;;4.53;0.32;;;16.90;99.90;;;;;;5009005;28;20077;-66
2023/05/31 06:53:50;;;;;;;4.43;0.40;;;17.00;99.90;;;;;;5026417;28;20140;-65
2023/05/31 06:56:16;;;;;;;5.00;0.40;;;16.90;99.90;;;;;;5026324;28;20487;-65
2023/05/31 06:58:43;;;;;;;4.53;0.30;;;16.90;99.90;;;;;;5027276;28;20077;-66
2023/05/31 07:01:08;;;;;;;3.00;0.25;;;17.00;99.90;;;;;;5010029;28;20040;-65
2023/05/31 07:03:34;;;;;;;5.45;0.40;;;16.90;99.90;;;;;;5022610;28;20343;-65
2023/05/31 07:06:00;;;;;;;4.68;0.40;;;17.00;99.90;;;;;;5010345;28;20072;-66
2023/05/31 07:08:26;;;;;;;4.60;0.38;;;16.90;99.90;;;;;;5011193;28;20122;-66
2023/05/31 07:10:53;;;;;;;5.00;0.40;;;16.90;99.90;;;;;;5026061;28;20040;-66
2023/05/31 07:13:18;;;;;;;6.05;0.60;;;17.00;99.90;;;;;;5021354;28;20042;-66
2023/05/31 07:15:44;;;;;;;5.80;0.38;;;17.00;99.90;;;;;;5026552;28;20436;-66
2023/05/31 07:18:10;;;;;;;2.97;0.40;;;17.10;99.90;;;;;;4994331;28;20041;-65
2023/05/31 07:20:35;;;;;;;4.47;0.50;;;17.10;99.90;;;;;;5027940;28;20061;-65
2023/05/31 07:23:01;;;;;;;3.42;0.50;;;17.20;99.90;;;;;;5022232;28;20046;-65
2023/05/31 07:25:27;;;;;;;6.97;0.70;;;17.30;99.90;;;;;;5024571;28;20088;-66
2023/05/31 07:27:52;;;;;;;6.43;0.70;;;17.50;99.90;;;;;;5027421;28;20130;-68
2023/05/31 07:30:19;;;;;;;8.07;0.90;;;17.60;99.90;;;;;;4977068;28;20045;-66
2023/05/31 07:32:45;;;;;;;7.50;0.60;;;17.50;99.90;;;;;;5009774;28;20427;-66
2023/05/31 07:35:10;;;;;;;6.82;0.68;;;17.70;99.90;;;;;;4994898;28;20033;-66
2023/05/31 07:37:36;;;;;;;7.70;0.98;;;17.70;99.90;;;;;;5010152;28;20732;-66
2023/05/31 07:40:03;;;;;;;10.65;1.20;;;17.70;99.90;;;;;;5027000;28;20050;-67
2023/05/31 07:42:30;;;;;;;9.63;1.17;;;17.60;99.90;;;;;;5025085;28;20057;-66
2023/05/31 07:44:56;;;;;;;10.27;1.25;;;17.80;99.90;;;;;;5024467;28;20237;-67
2023/05/31 07:47:22;;;;;;;11.80;1.42;;;17.90;99.90;;;;;;5008290;28;20069;-66
2023/05/31 07:49:51;;;;;;;9.55;1.33;;;17.90;99.90;;;;;;5024778;28;20049;-66
2023/05/31 07:52:21;;;;;;;9.73;1.45;;;17.90;99.90;;;;;;5025545;28;20354;-67
2023/05/31 07:54:48;;;;;;;9.60;1.30;;;17.90;99.90;;;;;;5033370;28;20112;-66
2023/05/31 07:57:16;;;;;;;8.68;0.93;;;18.10;99.90;;;;;;4991717;28;20053;-67
2023/05/31 07:59:42;;;;;;;12.20;1.63;;;18.20;99.90;;;;;;5009032;28;20053;-67
2023/05/31 08:02:08;;;;;;;8.85;1.10;;;18.00;99.90;;;;;;5010822;28;20565;-66
2023/05/31 08:04:34;;;;;;;10.70;1.63;;;18.00;99.90;;;;;;5027866;28;20647;-67
2023/05/31 08:07:00;;;;;;;10.50;1.77;;;17.90;99.90;;;;;;5011153;28;20533;-67
2023/05/31 08:09:26;;;;;;;9.60;1.40;;;17.90;99.90;;;;;;5010936;28;20574;-67
2023/05/31 08:11:52;;;;;;;9.10;1.25;;;17.90;99.90;;;;;;5030718;28;20129;-66
2023/05/31 08:14:18;;;;;;;11.10;1.80;;;18.10;99.90;;;;;;5026497;28;20288;-66
2023/05/31 08:16:44;;;;;;;9.43;1.80;;;18.20;99.90;;;;;;5030348;28;20339;-66
2023/05/31 08:19:10;;;;;;;10.68;1.40;;;18.30;99.90;;;;;;5032071;28;20946;-67
2023/05/31 08:21:37;;;;;;;12.55;2.05;;;18.60;99.90;;;;;;5000959;28;20045;-67
2023/05/31 08:24:05;;;;;;;11.60;1.98;;;18.60;99.90;;;;;;5009843;28;20313;-68
2023/05/31 08:26:32;;;;;;;12.68;1.98;;;18.70;99.90;;;;;;5034111;28;20044;-68
2023/05/31 08:28:58;;;;;;;11.80;2.08;;;18.50;99.90;;;;;;4998686;28;20049;-68
2023/05/31 08:31:24;;;;;;;10.13;2.13;;;18.60;99.90;;;;;;5033658;28;20037;-68
2023/05/31 08:33:56;;;;;;;12.52;2.60;;;18.50;99.90;;;;;;5000577;28;21038;-68
2023/05/31 08:36:22;;;;;;;10.73;2.35;;;18.30;99.90;;;;;;5033215;28;21011;-67
2023/05/31 08:38:49;;;;;;;10.77;2.22;;;18.40;99.90;;;;;;5001257;28;20495;-67
2023/05/31 08:41:18;;;;;;;7.90;2.28;;;18.30;99.90;;;;;;5030301;28;20046;-66
2023/05/31 08:43:45;;;;;;;7.95;2.13;;;18.20;99.90;;;;;;4981132;28;20041;-67
2023/05/31 08:46:11;;;;;;;7.97;2.03;;;18.30;96.70;;;;;;4995143;28;20037;-68
2023/05/31 08:48:45;;;;;;;5.22;1.90;;;18.20;67.40;;;;;;5029673;28;21000;-67
2023/05/31 08:51:13;;;;;;;6.10;1.80;;;18.10;16.30;;;;;;5005473;28;20081;-66
2023/05/31 08:53:41;;;;;;;6.80;2.03;;;17.60;77.60;;;;;;4986537;28;20076;-66
2023/05/31 08:56:08;;;;;;;6.90;1.80;;;17.80;99.90;;;;;;4995766;28;20443;-67
2023/05/31 08:58:36;;;;;;;5.93;2.00;;;17.90;90.70;;;;;;4995437;28;20049;-66
2023/05/31 09:01:05;;;;;;;5.45;1.88;;;17.90;12.10;;;;;;5029916;28;20212;-67
2023/05/31 09:03:32;;;;;;;8.82;2.10;;;17.70;43.70;;;;;;5029319;28;20788;-67
2023/05/31 09:05:58;;;;;;;7.50;1.83;;;17.60;88.70;;;;;;5030093;28;20049;-66
2023/05/31 09:08:24;;;;;;;8.32;1.85;;;17.60;96.50;;;;;;5013478;28;20053;-67
2023/05/31 09:10:51;;;;;;;6.28;1.83;;;17.60;99.90;;;;;;4998134;28;20123;-67
2023/05/31 09:13:16;;;;;;;7.65;1.67;;;17.60;18.60;;;;;;4995737;28;20038;-66
2023/05/31 09:15:44;;;;;;;7.65;2.30;;;17.50;92.30;;;;;;4995231;28;20049;-66
2023/05/31 09:18:15;;;;;;;5.68;1.55;;;17.40;83.90;;;;;;5012119;28;20516;-66
2023/05/31 09:20:41;;;;;;;10.43;2.42;;;17.50;54.00;;;;;;4996055;28;20071;-66
2023/05/31 09:23:08;;;;;;;9.40;1.70;;;17.50;59.60;;;;;;5027601;28;20038;-67
2023/05/31 09:25:47;;;;;;;9.95;1.42;;;17.40;99.90;;;;;;5026681;28;20069;-65
2023/05/31 09:28:13;;;;;;;9.18;1.35;;;17.60;99.90;;;;;;5010871;28;20045;-66
2023/05/31 09:30:39;;;;;;;9.75;0.88;;;17.80;99.90;;;;;;5026659;28;20100;-66
2023/05/31 09:33:06;;;;;;;8.23;1.17;;;17.90;30.40;;;;;;5028565;28;21043;-67
2023/05/31 09:35:31;;;;;;;5.28;0.73;;;18.10;5.50;;;;;;5028290;28;20109;-67
2023/05/31 09:37:57;;;;;;;7.47;1.10;;;18.00;1.00;;;;;;5028524;28;20103;-67
2023/05/31 09:40:28;;;;;;;8.00;1.33;;;18.30;1.00;;;;;;5021248;28;20131;-66
2023/05/31 09:42:54;;;;;;;8.50;1.33;;;18.20;1.00;;;;;;4995974;28;20116;-66
2023/05/31 09:45:21;;;;;;;7.82;1.27;;;18.40;1.00;;;;;;5027799;28;20128;-66
2023/05/31 09:47:48;;;;;;;10.55;2.08;;;18.70;1.00;;;;;;4994467;28;20049;-66
2023/05/31 09:50:18;;;;;;;8.65;1.30;;;18.40;1.00;;;;;;5027361;28;20048;-66
2023/05/31 09:52:44;;;;;;;6.03;1.13;;;18.40;1.00;;;;;;5020987;28;20547;-67
2023/05/31 09:55:12;;;;;;;5.68;1.23;;;18.60;1.00;;;;;;5012985;28;20033;-67
2023/05/31 09:57:43;;;;;;;4.15;0.80;;;18.70;1.00;;;;;;5029163;28;20428;-66
2023/05/31 10:00:17;;;;;;;8.85;1.30;;;18.70;1.00;;;;;;4988427;28;20042;-66
2023/05/31 10:02:51;;;;;;;5.60;0.80;;;18.60;99.90;;;;;;4992243;28;20066;-66
2023/05/31 10:05:18;;;;;;;6.97;0.80;;;18.10;1.00;;;;;;5021978;28;20515;-66
2023/05/31 10:07:46;;;;;;;5.63;0.90;;;18.50;1.00;;;;;;4993405;28;20072;-67
2023/05/31 10:10:13;;;;;;;7.25;1.00;;;18.30;1.00;;;;;;5026959;28;20054;-66
2023/05/31 10:12:53;;;;;;;5.88;0.70;;;18.60;99.90;;;;;;5012350;28;20401;-66
2023/05/31 10:15:22;;;;;;;9.70;1.55;;;18.50;1.00;;;;;;4994086;28;20047;-65
2023/05/31 10:18:01;;;;;;;6.82;1.00;;;18.70;1.00;;;;;;5002539;28;20108;-66
2023/05/31 10:20:35;;;;;;;6.40;1.15;;;18.90;1.00;;;;;;5027363;28;20053;-67
2023/05/31 10:23:05;;;;;;;11.68;1.50;;;19.20;99.90;;;;;;5005466;28;20170;-67
2023/05/31 10:25:55;;;;;;;5.60;0.93;;;19.30;99.90;;;;;;5004530;28;20531;-67
2023/05/31 10:28:25;;;;;;;5.03;0.77;;;19.50;99.90;;;;;;4987380;28;20045;-67
2023/05/31 10:30:52;;;;;;;9.23;1.35;;;19.40;99.90;;;;;;5006922;28;20046;-67
2023/05/31 10:33:19;;;;;;;6.65;1.00;;;19.20;99.90;;;;;;5025612;28;20042;-67
2023/05/31 10:35:45;;;;;;;5.75;1.20;;;19.20;99.90;;;;;;5025423;28;20041;-67
2023/05/31 10:38:13;;;;;;;7.30;1.27;;;19.30;99.90;;;;;;4993328;28;20205;-66
2023/05/31 10:41:01;;;;;;;4.90;0.80;;;19.40;99.90;;;;;;4994596;28;20085;-66
2023/05/31 10:43:39;;;;;;;6.43;1.00;;;19.50;99.90;;;;;;5046734;28;20041;-65
2023/05/31 10:46:10;;;;;;;7.30;1.05;;;19.50;99.90;;;;;;5011584;28;20486;-65
2023/05/31 10:48:39;;;;;;;5.07;1.25;;;19.50;99.90;;;;;;5009361;28;20464;-66
2023/05/31 10:51:06;;;;;;;7.75;1.02;;;19.30;99.90;;;;;;5009181;28;20057;-66
2023/05/31 10:53:37;;;;;;;4.68;0.95;;;19.60;99.90;;;;;;5010290;28;20048;-65
2023/05/31 10:56:05;;;;;;;6.93;0.95;;;19.70;99.90;;;;;;5000720;28;21216;-65
2023/05/31 10:58:38;;;;;;;6.97;1.30;;;19.70;99.90;;;;;;5024213;28;20472;-66
2023/05/31 11:01:05;;;;;;;;;;;19.80;99.90;;;;;;5044064;28;20245;-66
2023/05/31 11:03:34;;;;;;;6.70;1.40;;;19.50;99.90;;;;;;5043639;28;19932;-65
2023/05/31 11:06:05;;;;;;;9.32;1.20;;;19.70;99.90;;;;;;5007836;28;20455;-66
2023/05/31 11:08:34;;;;;;;5.93;1.20;;;19.90;99.90;;;;;;5007888;28;20427;-66
2023/05/31 11:11:39;;;;;;;5.53;0.90;;;20.20;99.90;;;;;;5024799;28;20272;-66
2023/05/31 11:14:31;;;;;;;8.13;1.40;;;20.10;99.90;;;;;;4989123;28;20092;-66
2023/05/31 11:17:03;;;;;;;4.18;0.60;;;20.10;99.90;;;;;;5009451;28;20049;-66
2023/05/31 11:19:36;;;;;;;2.92;0.68;;;20.10;99.90;;;;;;5026707;28;20137;-65
2023/05/31 11:22:09;;;;;;;5.30;1.52;;;20.10;99.90;;;;;;5009767;28;20048;-65
2023/05/31 11:24:38;;;;;;;6.43;1.08;;;19.80;99.90;;;;;;5010023;28;20614;-66
2023/05/31 11:27:06;;;;;;;6.50;0.93;;;20.10;99.90;;;;;;5042664;28;20298;-66
2023/05/31 11:29:46;;;;;;;5.95;0.88;;;20.10;99.90;;;;;;5010010;28;20152;-66
2023/05/31 11:32:17;;;;;;;3.90;0.93;;;20.20;99.90;;;;;;5043172;28;20045;-66
2023/05/31 11:34:53;;;;;;;7.65;1.00;;;19.80;99.90;;;;;;5011080;28;20069;-66
2023/05/31 11:37:23;;;;;;;5.28;1.10;;;20.00;99.90;;;;;;5009839;28;20124;-66
2023/05/31 11:39:49;;;;;;;6.00;1.00;;;20.00;99.90;;;;;;5009981;28;20053;-65
2023/05/31 11:42:15;;;;;;;3.78;0.90;;;20.40;99.90;;;;;;5042606;28;20053;-65
2023/05/31 11:44:43;;;;;;;4.20;0.82;;;20.50;99.90;;;;;;5025693;28;20049;-66
2023/05/31 11:47:18;;;;;;;5.53;1.02;;;20.60;99.90;;;;;;5012029;28;20147;-66
2023/05/31 11:49:44;;;;;;;6.45;1.13;;;20.20;99.90;;;;;;5013764;28;20056;-66
2023/05/31 11:52:15;;;;;;;5.55;1.35;;;20.00;99.90;;;;;;5013768;28;20536;-66
2023/05/31 11:54:43;;;;;;;4.40;0.70;;;19.90;99.90;;;;;;5029480;28;20037;-66
2023/05/31 11:57:10;;;;;;;9.15;1.13;;;20.00;99.90;;;;;;5013471;28;20214;-66
2023/05/31 11:59:37;;;;;;;4.35;0.75;;;19.90;99.90;;;;;;5047075;28;20076;-66
2023/05/31 12:02:05;;;;;;;6.53;1.05;;;20.20;99.90;;;;;;5046043;28;20045;-66
2023/05/31 12:04:39;;;;;;;5.55;1.08;;;20.50;99.90;;;;;;5046790;28;20049;-66
2023/05/31 12:07:06;;;;;;;5.50;1.13;;;20.60;99.90;;;;;;5012933;28;20046;-66
2023/05/31 12:09:33;;;;;;;5.38;1.30;;;20.20;99.90;;;;;;5012609;28;20064;-66
2023/05/31 12:12:03;;;;;;;6.75;1.13;;;20.20;99.90;;;;;;5012758;28;20256;-67
2023/05/31 12:14:29;;;;;;;7.13;1.00;;;20.20;99.90;;;;;;5029597;28;20057;-67
2023/05/31 12:16:55;;;;;;;5.00;1.27;;;20.00;99.90;;;;;;5030298;28;21268;-67
2023/05/31 12:19:21;;;;;;;7.65;1.40;;;20.00;99.90;;;;;;5045793;28;20045;-67
2023/05/31 12:21:47;;;;;;;9.13;1.17;;;20.10;99.90;;;;;;5012354;28;20042;-67
2023/05/31 12:24:15;;;;;;;6.57;1.20;;;20.10;99.90;;;;;;5029243;28;20049;-67
2023/05/31 12:26:43;;;;;;;7.60;1.40;;;19.90;99.90;;;;;;5012125;28;20053;-68
2023/05/31 12:29:14;;;;;;;7.07;1.23;;;20.00;99.90;;;;;;5013133;28;20554;-67
2023/05/31 12:31:40;;;;;;;6.97;1.10;;;20.00;99.90;;;;;;5012940;28;20512;-67
2023/05/31 12:34:12;;;;;;;8.45;1.58;;;20.00;99.90;;;;;;5012080;28;20049;-66
2023/05/31 12:36:45;;;;;;;5.30;1.17;;;20.20;99.90;;;;;;5012327;28;20446;-65
2023/05/31 12:39:21;;;;;;;;;;;20.50;99.90;;;;;;5012926;28;20703;-66
2023/05/31 12:41:48;;;;;;;5.70;1.40;;;20.30;99.90;;;;;;5045648;28;19924;-66
2023/05/31 12:44:20;;;;;;;6.38;1.40;;;20.30;99.90;;;;;;5045292;28;20088;-66